WAAA/UPG METAR and TAF weather

Enter ICAO airport designator
Station Type Date Time Source
WAAA METAR 2019/02/17 16:00 UTC NOAA

WAAA 171600Z 10005KT 8000 FEW020 25/25 Q1012 NOSIG


Station Type Date Time Source
WAAA Decoded METAR 2019/02/17 16:00 UTC NOAA

Ujung Pandang / Hasanuddin, Indonesia (WAAA) 05-04S 119-33E 14M
Feb 17, 2019 - 11:00 AM EST / 2019.02.17 1600 UTC
Wind: from the E (100 degrees) at 6 MPH (5 KT):0
Visibility: 4 mile(s):0
Sky conditions: mostly clear
Temperature: 77 F (25 C)
Dew Point: 77 F (25 C)
Relative Humidity: 100%
Pressure (altimeter): 29.88 in. Hg (1012 hPa)
ob: WAAA 171600Z 10005KT 8000 FEW020 25/25 Q1012 NOSIG
cycle: 16

Station Type Date Time Source
WAAA TAF 2019/02/17 12:09 UTC NOAA

TAF TAF WAAA 171100Z 1712/1818 10005KT 7000 SCT018
BECMG 1722/1800 20005KT 9999
BECMG 1804/1806 28010KT


Example: see airport list